Terminal Aerodrome Forecast
Issued by NWS Omaha/Valley, NE

Home | Current Version | Previous Version | Text Only | Print | Product List | Glossary On
Versions: 1 2 3 4 5 6 7 8 9 10 11 12 13 14 15 16 17 18 19 20 21 22 23 24 25 26 27 28 29 30 31 32 33 34 35 36 37 38 39 40 41 42 43
000
FTUS43 KOAX 290823 AAA
TAFOMA
TAF AMD
KOMA 290823Z 2908/3006 VRB04KT P6SM SCT100 SCT250
     FM291100 VRB04KT P6SM BKN100
     FM291500 21006KT P6SM SCT100
     FM292100 23007KT P6SM SCT050=

USA.gov is the U.S. government's official web portal to all federal, state and local government web resources and services.